Pagrindinis puslapis
METAR-TAF:

METAR-TAF

Oro uostai :

Berlynas, Vokietija

platuma: 52-34N, ilguma: 013-19E, Aukštis: 37 m

Dabartinis oras

Ataskaita buvo paskelbta 22 minutes, ne 16:20 UTC
Vėjas 6 kt iš Vakarų/Šiaurės Vakarų, svyruoja nuo Vakarų/Pietvakarių ir Šiaurės Vakarų
Temperatūra 16°C
Drėgmė 59%
Slėgis 1026 hPa
Matomumas 10 km arba daugiau
Mažai debesys ne aukštis 3700 ft
Su prošvaistėmis ne aukštis 4600 ft

METAR: EDDT 201620Z 29006KT 250V320 9999 FEW037 BKN046 16/08 Q1026 NOSIG

Laikas: 18:42 (16:42 UTC)

Prognozė

Ataskaita buvo paskelbta 5 valandos ir 42 minutes, ne 11:00 UTC
Prognozė galioja nuo 20 metu 12 UTC su 21 metu 12 UTC
Vėjas 5 kt iš Vakarų
Matomumas 10 km arba daugiau
Išsisklaidę debesys ne aukštis 4500 ft

TAF: EDDT 201100Z 2012/2112 27005KT 9999 SCT045

Orai ataskaitas ir orų prognozės (METAR, TAF).

turimą stotys yra geltonos ir raudonos taškus žemėlapyje.

Perkelti pele per norėdami pamatyti stoties vardą.

Tada spustelėkite, norėdami matyti oro stebėjimo ir prognozės.

Norėdami pakeisti žemėlapį: spustelėkite ant žalios mygtukų su juodo kryžiaus žemyn,; žalią mygtuką su brūkšneliu, jei norite nutolinti; arba žalių rodyklių gretimoms žemėlapius.


METAR-TAF: